Time;durP1;ratioP1;P1;durP2;ratioP2;P2;SDS_P1;SDS_P2;PMS_P1;PMS_P2;Temp;Humidity;BMP_temperature;BMP_pressure;BME280_temperature;BME280_humidity;BME280_pressure;Samples;Min_cycle;Max_cycle;Signal;HPM_P1;HPM_P2
2022/01/21 00:00:20;;;;;;;4.40;1.58;;;19.70;48.70;;;;;;4396496;32;20134;-65
2022/01/21 00:02:46;;;;;;;5.82;1.80;;;19.70;48.70;;;;;;4396614;32;20067;-65
2022/01/21 00:05:12;;;;;;;4.93;1.60;;;19.70;48.90;;;;;;4396817;32;20482;-65
2022/01/21 00:07:38;;;;;;;4.70;1.23;;;19.70;48.80;;;;;;4396359;32;20170;-65
2022/01/21 00:10:06;;;;;;;6.75;1.65;;;19.70;48.90;;;;;;4396391;32;20182;-65
2022/01/21 00:12:33;;;;;;;7.30;1.70;;;19.60;48.90;;;;;;4396299;32;20114;-65
2022/01/21 00:14:58;;;;;;;4.75;1.38;;;19.60;48.90;;;;;;4391072;32;20083;-64
2022/01/21 00:17:25;;;;;;;5.43;1.75;;;19.60;49.00;;;;;;4397701;32;20089;-65
2022/01/21 00:30:06;;;;;;;4.10;1.30;;;19.60;49.10;;;;;;4398719;32;20256;-64
2022/01/21 00:30:52;;;;;;;5.50;1.38;;;19.50;49.10;;;;;;4399840;32;20075;-65
2022/01/21 00:33:18;;;;;;;3.85;1.30;;;19.50;49.20;;;;;;4385998;32;20209;-65
2022/01/21 00:35:44;;;;;;;3.85;1.30;;;19.40;49.10;;;;;;4399631;32;20101;-65
2022/01/21 00:38:10;;;;;;;4.63;1.38;;;19.40;49.20;;;;;;4399745;32;20157;-65
2022/01/21 00:40:37;;;;;;;4.78;1.50;;;19.40;49.20;;;;;;4399460;32;20101;-65
2022/01/21 00:45:32;;;;;;;4.28;1.10;;;19.40;49.30;;;;;;4398775;32;20075;-65
2022/01/21 00:47:58;;;;;;;5.93;1.30;;;19.40;49.40;;;;;;4398940;32;20506;-65
2022/01/21 00:50:24;;;;;;;3.45;1.00;;;19.30;49.40;;;;;;4399570;32;20090;-65
2022/01/21 00:52:50;;;;;;;5.95;1.45;;;19.30;49.40;;;;;;4399407;32;20123;-65
2022/01/21 00:55:16;;;;;;;3.83;1.13;;;19.30;49.40;;;;;;4393338;32;20142;-65
2022/01/21 00:57:42;;;;;;;4.97;1.30;;;19.30;49.40;;;;;;4384151;32;20094;-65
2022/01/21 01:00:10;;;;;;;5.43;1.42;;;19.30;49.50;;;;;;4384240;32;20090;-65
2022/01/21 01:02:37;;;;;;;4.05;1.52;;;19.30;49.50;;;;;;4384210;32;20217;-65
2022/01/21 01:05:04;;;;;;;4.70;1.52;;;19.30;49.60;;;;;;4384332;32;20083;-65
2022/01/21 01:07:30;;;;;;;3.80;1.45;;;19.20;49.50;;;;;;4384263;32;20122;-65
2022/01/21 01:09:57;;;;;;;2.85;1.10;;;19.20;49.60;;;;;;4385239;32;20082;-65
2022/01/21 01:20:25;;;;;;;4.50;1.20;;;19.20;49.70;;;;;;4385123;32;20293;-65
2022/01/21 01:23:05;;;;;;;3.70;1.13;;;19.20;49.70;;;;;;4370741;32;20453;-65
2022/01/21 01:28:15;;;;;;;3.85;1.25;;;19.10;49.60;;;;;;4385156;32;20418;-65
2022/01/21 01:30:41;;;;;;;3.28;1.17;;;19.10;49.70;;;;;;4384431;32;20063;-65
2022/01/21 01:33:10;;;;;;;4.32;1.10;;;19.10;49.70;;;;;;4370059;32;20086;-64
2022/01/21 01:35:38;;;;;;;5.22;1.50;;;19.10;49.70;;;;;;4384588;32;20091;-65
2022/01/21 01:40:45;;;;;;;3.53;1.15;;;19.10;49.70;;;;;;4385039;32;20141;-65
2022/01/21 01:51:13;;;;;;;3.83;1.17;;;19.00;49.80;;;;;;4384647;32;20266;-65
2022/01/21 01:53:52;;;;;;;3.85;1.25;;;19.00;49.80;;;;;;4384101;32;20082;-65
2022/01/21 01:56:21;;;;;;;4.60;1.25;;;19.00;49.90;;;;;;4384487;32;20182;-65
2022/01/21 01:58:47;;;;;;;4.10;1.10;;;19.00;49.90;;;;;;4383896;32;20574;-65
2022/01/21 02:01:13;;;;;;;2.80;1.10;;;18.90;49.80;;;;;;4384459;32;20201;-65
2022/01/21 02:03:39;;;;;;;4.85;1.25;;;18.90;50.20;;;;;;4383968;32;20514;-65
2022/01/21 02:06:06;;;;;;;5.07;1.30;;;18.90;49.80;;;;;;4384506;32;20075;-65
2022/01/21 02:08:33;;;;;;;4.00;1.13;;;18.90;49.90;;;;;;4383766;32;20285;-65
2022/01/21 02:11:00;;;;;;;5.50;1.40;;;18.90;49.90;;;;;;4384259;32;20091;-65
2022/01/21 02:13:29;;;;;;;4.60;1.35;;;18.90;49.90;;;;;;4370470;32;20082;-65
2022/01/21 02:16:02;;;;;;;4.18;1.10;;;18.90;49.90;;;;;;4383591;32;20083;-65
2022/01/21 02:24:24;;;;;;;3.00;0.90;;;18.80;49.90;;;;;;4383850;32;20109;-65
2022/01/21 02:26:52;;;;;;;3.38;1.20;;;18.80;50.00;;;;;;4383591;32;20111;-65
2022/01/21 02:29:38;;;;;;;2.70;1.10;;;18.80;50.00;;;;;;4383756;32;20093;-65
2022/01/21 02:32:04;;;;;;;3.33;0.90;;;18.80;50.00;;;;;;4384106;32;20067;-65
2022/01/21 02:34:31;;;;;;;2.75;0.95;;;18.80;50.10;;;;;;4383794;32;20098;-65
2022/01/21 02:36:57;;;;;;;3.55;0.90;;;18.80;50.10;;;;;;4370226;32;20071;-65
2022/01/21 02:39:23;;;;;;;2.92;1.00;;;18.70;50.10;;;;;;4383723;32;20166;-65
2022/01/21 02:41:49;;;;;;;2.58;1.13;;;18.70;50.10;;;;;;4383685;32;20537;-65
2022/01/21 02:44:17;;;;;;;3.47;1.27;;;18.70;50.10;;;;;;4383006;32;20609;-65
2022/01/21 02:46:46;;;;;;;2.85;0.88;;;18.70;50.10;;;;;;4383739;32;20102;-65
2022/01/21 02:49:12;;;;;;;4.28;1.30;;;18.70;50.20;;;;;;4383634;32;20079;-65
2022/01/21 02:51:39;;;;;;;1.52;0.80;;;18.70;50.20;;;;;;4369813;32;20075;-65
2022/01/21 02:54:05;;;;;;;2.47;0.70;;;18.70;50.20;;;;;;4383146;32;20237;-65
2022/01/21 02:56:34;;;;;;;2.95;0.90;;;18.70;50.20;;;;;;4383305;32;20570;-65
2022/01/21 02:59:00;;;;;;;2.97;1.00;;;18.60;50.20;;;;;;4383814;32;20533;-65
2022/01/21 03:01:26;;;;;;;2.42;0.95;;;18.70;50.30;;;;;;4383602;32;20101;-65
2022/01/21 03:03:53;;;;;;;2.80;0.77;;;18.60;50.30;;;;;;4383802;32;20244;-65
2022/01/21 03:06:22;;;;;;;2.55;0.88;;;18.60;50.30;;;;;;4383546;32;20367;-65
2022/01/21 03:08:49;;;;;;;2.92;0.82;;;18.60;50.30;;;;;;4383220;32;20079;-65
2022/01/21 03:11:15;;;;;;;3.60;1.05;;;18.60;50.30;;;;;;4383384;32;20083;-65
2022/01/21 03:13:43;;;;;;;2.30;0.88;;;18.60;50.30;;;;;;4383160;32;20086;-65
2022/01/21 03:16:10;;;;;;;2.20;0.88;;;18.60;50.30;;;;;;4383465;32;20098;-65
2022/01/21 03:18:36;;;;;;;1.77;0.63;;;18.60;50.30;;;;;;4376719;32;20095;-65
2022/01/21 03:21:02;;;;;;;2.03;0.75;;;18.60;50.30;;;;;;4398372;32;20503;-65
2022/01/21 03:23:29;;;;;;;1.25;0.65;;;18.60;50.30;;;;;;4398717;32;20111;-65
2022/01/21 03:25:55;;;;;;;2.22;0.77;;;18.50;50.30;;;;;;4397932;32;20090;-65
2022/01/21 03:28:21;;;;;;;1.70;0.77;;;18.50;50.30;;;;;;4398413;32;20119;-65
2022/01/21 03:30:50;;;;;;;1.17;0.60;;;18.50;50.30;;;;;;4397922;32;20141;-65
2022/01/21 03:33:16;;;;;;;2.90;0.90;;;18.50;50.40;;;;;;4398305;32;20068;-65
2022/01/21 03:35:42;;;;;;;3.35;1.02;;;18.50;50.40;;;;;;4398481;32;20223;-65
2022/01/21 03:38:08;;;;;;;2.08;0.70;;;18.50;50.40;;;;;;4398091;32;20490;-65
2022/01/21 03:40:34;;;;;;;1.75;0.85;;;18.50;50.40;;;;;;4398111;32;20486;-65
2022/01/21 03:43:00;;;;;;;3.10;0.88;;;18.50;50.40;;;;;;4398292;32;20079;-65
2022/01/21 03:45:26;;;;;;;1.92;0.60;;;18.50;50.40;;;;;;4397866;32;20216;-65
2022/01/21 03:47:52;;;;;;;3.40;0.95;;;18.50;50.50;;;;;;4397949;32;20212;-65
2022/01/21 03:50:23;;;;;;;2.28;0.73;;;18.40;50.40;;;;;;4398323;32;20082;-65
2022/01/21 03:52:51;;;;;;;2.55;0.68;;;18.40;50.50;;;;;;4398206;32;20075;-65
2022/01/21 03:55:18;;;;;;;3.00;1.13;;;18.40;50.50;;;;;;4399124;32;20072;-65
2022/01/21 03:57:44;;;;;;;3.85;0.98;;;18.40;50.50;;;;;;4401072;32;20075;-65
2022/01/21 04:00:14;;;;;;;2.75;0.90;;;18.40;50.50;;;;;;4400997;32;20105;-65
2022/01/21 04:02:40;;;;;;;1.92;0.73;;;18.40;50.60;;;;;;4401208;32;20181;-65
2022/01/21 04:05:06;;;;;;;2.53;0.70;;;18.40;50.60;;;;;;4400940;32;20201;-65
2022/01/21 04:07:32;;;;;;;2.72;0.70;;;18.40;50.50;;;;;;4401083;32;20097;-65
2022/01/21 04:09:57;;;;;;;2.35;0.82;;;18.40;50.50;;;;;;4400732;32;20075;-65
2022/01/21 04:12:23;;;;;;;2.25;0.77;;;18.40;50.50;;;;;;4400986;32;20542;-65
2022/01/21 04:14:50;;;;;;;3.08;0.90;;;18.30;50.50;;;;;;4400957;32;20075;-65
2022/01/21 04:17:18;;;;;;;3.22;1.00;;;18.30;50.50;;;;;;4400703;32;20091;-65
2022/01/21 04:19:44;;;;;;;1.13;0.70;;;18.30;50.50;;;;;;4400538;32;20525;-65
2022/01/21 04:22:09;;;;;;;1.20;0.65;;;18.30;50.60;;;;;;4400624;32;20087;-65
2022/01/21 04:24:37;;;;;;;1.83;0.63;;;18.30;50.60;;;;;;4401200;32;20530;-65
2022/01/21 04:27:03;;;;;;;1.83;0.75;;;18.30;50.60;;;;;;4400489;32;20071;-65
2022/01/21 04:29:29;;;;;;;2.42;0.60;;;18.30;50.60;;;;;;4400507;32;20086;-64
2022/01/21 04:31:55;;;;;;;1.42;0.63;;;18.30;50.60;;;;;;4400555;32;20063;-65
2022/01/21 04:34:20;;;;;;;1.92;0.65;;;18.30;50.70;;;;;;4400685;32;20490;-65
2022/01/21 04:36:46;;;;;;;2.22;0.65;;;18.30;50.70;;;;;;4400098;32;20063;-65
2022/01/21 04:39:20;;;;;;;3.17;0.90;;;18.30;50.70;;;;;;4399656;32;20075;-65
2022/01/21 04:49:41;;;;;;;1.67;0.75;;;18.20;50.70;;;;;;4399670;32;20224;-65
2022/01/21 04:52:07;;;;;;;1.67;0.85;;;18.20;50.70;;;;;;4399446;32;20413;-65
2022/01/21 04:54:34;;;;;;;2.25;0.85;;;18.20;50.70;;;;;;4399746;32;20059;-65
2022/01/21 04:57:01;;;;;;;3.15;0.80;;;18.20;50.70;;;;;;4393314;32;20097;-65
2022/01/21 04:59:27;;;;;;;2.22;0.68;;;18.20;50.70;;;;;;4399669;32;20067;-65
2022/01/21 05:01:53;;;;;;;2.08;0.50;;;18.20;50.70;;;;;;4385936;32;20079;-65
2022/01/21 05:04:19;;;;;;;2.22;0.65;;;18.20;50.70;;;;;;4399209;32;20083;-65
2022/01/21 05:06:47;;;;;;;3.65;0.85;;;18.20;50.80;;;;;;4399741;32;20079;-65
2022/01/21 05:09:16;;;;;;;2.17;0.90;;;18.20;50.80;;;;;;4399335;32;20063;-65
2022/01/21 05:11:42;;;;;;;2.08;0.70;;;18.20;50.80;;;;;;4395175;32;20180;-65
2022/01/21 05:14:17;;;;;;;2.10;0.50;;;18.10;50.70;;;;;;4399414;32;20091;-65
2022/01/21 05:16:48;;;;;;;2.30;0.80;;;18.10;50.80;;;;;;4399241;32;20210;-65
2022/01/21 05:19:16;;;;;;;1.13;0.50;;;18.10;50.80;;;;;;4399410;32;20091;-65
2022/01/21 05:21:44;;;;;;;3.30;0.73;;;18.10;50.70;;;;;;4399611;32;20185;-64
2022/01/21 05:24:11;;;;;;;2.17;0.60;;;18.10;50.80;;;;;;4399303;32;20066;-65
2022/01/21 05:26:39;;;;;;;3.08;0.88;;;18.10;50.80;;;;;;4399602;32;20085;-65
2022/01/21 05:29:09;;;;;;;2.10;0.65;;;18.10;50.80;;;;;;4399437;32;20470;-65
2022/01/21 05:31:35;;;;;;;1.38;0.55;;;18.10;50.80;;;;;;4399557;32;20103;-65
2022/01/21 05:34:02;;;;;;;3.08;0.63;;;18.10;50.80;;;;;;4399825;32;20373;-65
2022/01/21 05:36:30;;;;;;;1.90;0.70;;;18.10;50.80;;;;;;4399835;32;20079;-65
2022/01/21 05:38:57;;;;;;;1.83;0.70;;;18.10;50.80;;;;;;4395521;32;20083;-65
2022/01/21 05:41:24;;;;;;;1.63;0.63;;;18.10;50.80;;;;;;4369733;32;20290;-65
2022/01/21 05:43:59;;;;;;;2.58;0.70;;;18.10;50.80;;;;;;4383489;32;20079;-65
2022/01/21 05:46:54;;;;;;;2.33;0.70;;;18.10;50.80;;;;;;4382912;32;20230;-65
2022/01/21 05:49:15;;;;;;;2.17;0.52;;;18.00;50.80;;;;;;4383904;32;20541;-65
2022/01/21 05:51:44;;;;;;;1.10;0.45;;;18.00;50.80;;;;;;4384411;32;20094;-65
2022/01/21 05:54:10;;;;;;;2.47;0.82;;;18.10;50.80;;;;;;4384310;32;20079;-65
2022/01/21 05:56:37;;;;;;;1.25;0.50;;;18.00;50.80;;;;;;4384304;32;20201;-65
2022/01/21 05:59:07;;;;;;;2.83;0.80;;;18.00;50.80;;;;;;4384143;32;20071;-65
2022/01/21 06:01:34;;;;;;;3.42;0.80;;;18.00;50.90;;;;;;4384200;32;20079;-65
2022/01/21 06:04:04;;;;;;;2.72;0.75;;;18.00;50.80;;;;;;4384253;32;20159;-65
2022/01/21 06:06:30;;;;;;;2.22;0.75;;;18.00;51.00;;;;;;4384042;32;20511;-65
2022/01/21 06:08:56;;;;;;;3.42;0.70;;;18.00;50.90;;;;;;4383847;32;20076;-65
2022/01/21 06:11:22;;;;;;;1.65;0.50;;;18.00;50.90;;;;;;4383615;32;20137;-65
2022/01/21 06:13:50;;;;;;;1.45;0.50;;;18.00;50.90;;;;;;4384022;32;20388;-65
2022/01/21 06:16:19;;;;;;;3.22;0.70;;;17.90;50.80;;;;;;4383553;32;20170;-64
2022/01/21 06:18:46;;;;;;;2.10;0.60;;;18.00;50.90;;;;;;4383412;32;20087;-65
2022/01/21 06:21:12;;;;;;;1.35;0.40;;;17.90;50.80;;;;;;4383735;32;20119;-65
2022/01/21 06:23:38;;;;;;;2.58;0.80;;;17.90;50.90;;;;;;4384031;32;20095;-65
2022/01/21 06:26:04;;;;;;;1.33;0.38;;;17.90;50.90;;;;;;4383892;32;20094;-64
2022/01/21 06:28:30;;;;;;;1.92;0.70;;;17.90;50.90;;;;;;4383869;32;20079;-65
2022/01/21 06:30:56;;;;;;;2.25;0.57;;;17.90;50.90;;;;;;4383893;32;20075;-64
2022/01/21 06:33:22;;;;;;;2.25;0.73;;;17.90;51.20;;;;;;4388402;32;20103;-65
2022/01/21 06:35:52;;;;;;;2.03;0.70;;;17.90;51.00;;;;;;4396411;32;20459;-65
2022/01/21 06:38:20;;;;;;;2.47;0.77;;;17.90;50.90;;;;;;4396323;32;20583;-65
2022/01/21 06:40:46;;;;;;;6.38;1.55;;;17.80;50.40;;;;;;4398044;32;20422;-65
2022/01/21 06:43:13;;;;;;;6.55;1.38;;;17.80;50.50;;;;;;4395488;32;20451;-66
2022/01/21 06:45:39;;;;;;;5.28;1.08;;;17.80;49.60;;;;;;4395163;32;20474;-65
2022/01/21 06:48:05;;;;;;;5.50;1.30;;;17.80;49.70;;;;;;4382970;32;20117;-65
2022/01/21 06:50:34;;;;;;;4.53;1.08;;;17.70;49.80;;;;;;4383634;32;20134;-65
2022/01/21 06:53:00;;;;;;;5.00;1.20;;;17.70;49.90;;;;;;4383719;32;20079;-65
2022/01/21 06:55:26;;;;;;;3.97;1.08;;;17.70;50.00;;;;;;4383262;32;20094;-65
2022/01/21 06:57:52;;;;;;;5.53;1.33;;;17.70;50.10;;;;;;4383571;32;20106;-65
2022/01/21 07:00:19;;;;;;;4.15;0.95;;;17.70;50.20;;;;;;4383530;32;20166;-65
2022/01/21 07:02:50;;;;;;;5.00;1.25;;;17.70;50.10;;;;;;4383516;32;20174;-65
2022/01/21 07:05:17;;;;;;;7.57;1.30;;;17.70;50.20;;;;;;4383192;32;20068;-66
2022/01/21 07:07:43;;;;;;;3.17;0.90;;;17.70;50.30;;;;;;4383360;32;20103;-65
2022/01/21 07:10:11;;;;;;;4.53;1.13;;;17.70;50.40;;;;;;4383221;32;20079;-65
2022/01/21 07:12:38;;;;;;;7.28;1.38;;;17.60;50.50;;;;;;4383341;32;20144;-65
2022/01/21 07:15:06;;;;;;;5.47;1.75;;;17.60;50.50;;;;;;4383382;32;20418;-65
2022/01/21 07:17:33;;;;;;;4.57;1.10;;;17.60;50.60;;;;;;4383220;32;20206;-65
2022/01/21 07:19:59;;;;;;;4.43;1.10;;;17.60;50.60;;;;;;4383383;32;20067;-65
2022/01/21 07:22:24;;;;;;;8.63;1.20;;;17.60;50.60;;;;;;4390106;32;20122;-66
2022/01/21 07:24:50;;;;;;;5.00;1.27;;;17.70;50.60;;;;;;4382704;32;20075;-65
2022/01/21 07:27:16;;;;;;;4.72;1.02;;;17.80;50.60;;;;;;4382860;32;20101;-65
2022/01/21 07:29:42;;;;;;;5.72;1.30;;;17.90;50.60;;;;;;4383152;32;20099;-65
2022/01/21 07:32:08;;;;;;;3.53;0.88;;;18.00;50.40;;;;;;4386357;32;20126;-65
2022/01/21 07:34:34;;;;;;;4.18;1.08;;;18.10;50.10;;;;;;4400192;32;20133;-66
2022/01/21 07:37:01;;;;;;;8.05;1.55;;;18.30;49.90;;;;;;4399079;32;20086;-65
2022/01/21 07:39:27;;;;;;;6.05;1.13;;;18.40;49.70;;;;;;4401218;32;20640;-66
2022/01/21 07:41:53;;;;;;;5.70;1.23;;;18.50;49.50;;;;;;4401460;32;20075;-64
2022/01/21 07:44:19;;;;;;;9.70;1.17;;;18.60;49.20;;;;;;4401407;32;20091;-65
2022/01/21 07:46:46;;;;;;;6.40;1.15;;;18.70;48.90;;;;;;4387918;32;20632;-65
2022/01/21 07:49:15;;;;;;;5.45;1.38;;;18.80;48.80;;;;;;4401047;32;20200;-62
2022/01/21 07:51:43;;;;;;;7.22;1.10;;;18.90;48.70;;;;;;4400860;32;20145;-65
2022/01/21 07:54:10;;;;;;;9.48;1.27;;;18.90;48.50;;;;;;4401446;32;20406;-65
2022/01/21 07:56:36;;;;;;;8.38;1.20;;;19.00;48.40;;;;;;4401199;32;20111;-65
2022/01/21 07:59:05;;;;;;;6.63;0.93;;;19.10;48.40;;;;;;4401179;32;20553;-65
2022/01/21 08:01:31;;;;;;;9.57;1.30;;;19.10;48.30;;;;;;4401069;32;20217;-65
2022/01/21 08:03:57;;;;;;;9.57;1.20;;;19.20;48.20;;;;;;4401554;32;20071;-65
2022/01/21 08:06:23;;;;;;;4.10;1.30;;;19.30;48.00;;;;;;4387141;32;20082;-66
2022/01/21 08:08:49;;;;;;;4.32;1.10;;;19.40;47.80;;;;;;4387364;32;20091;-66
2022/01/21 08:11:15;;;;;;;3.13;0.80;;;19.50;47.70;;;;;;4401167;32;20165;-65
2022/01/21 08:13:42;;;;;;;11.73;1.25;;;19.60;47.40;;;;;;4400434;32;20094;-67
2022/01/21 08:16:08;;;;;;;5.53;1.10;;;19.70;47.20;;;;;;4400546;32;20082;-66
2022/01/21 08:18:35;;;;;;;6.65;1.40;;;19.70;46.80;;;;;;4400303;32;20125;-66
2022/01/21 08:21:01;;;;;;;5.53;1.05;;;19.90;46.70;;;;;;4400908;32;20419;-66
2022/01/21 08:23:27;;;;;;;6.68;1.25;;;20.00;46.50;;;;;;4400299;32;20212;-65
2022/01/21 08:25:53;;;;;;;7.97;1.27;;;20.10;46.40;;;;;;4400535;32;20090;-66
2022/01/21 08:28:19;;;;;;;7.80;1.00;;;20.20;46.20;;;;;;4400559;32;20071;-66
2022/01/21 08:30:45;;;;;;;5.28;0.88;;;20.30;46.10;;;;;;4386890;32;20075;-66
2022/01/21 08:33:10;;;;;;;8.40;1.30;;;20.40;45.90;;;;;;4400554;32;20228;-66
2022/01/21 08:35:36;;;;;;;6.45;1.25;;;20.50;45.70;;;;;;4400150;32;20090;-65
2022/01/21 08:38:03;;;;;;;7.00;1.00;;;20.60;45.50;;;;;;4400395;32;20137;-66
2022/01/21 08:40:29;;;;;;;8.38;1.40;;;20.80;45.40;;;;;;4400096;32;20498;-66
2022/01/21 08:42:55;;;;;;;6.63;1.20;;;20.90;45.30;;;;;;4400477;32;20177;-66
2022/01/21 08:45:22;;;;;;;6.70;1.40;;;20.90;45.20;;;;;;4400553;32;20071;-66
2022/01/21 08:47:48;;;;;;;5.40;0.90;;;21.00;45.10;;;;;;4400071;32;20710;-67
2022/01/21 08:50:18;;;;;;;4.63;1.08;;;21.10;45.00;;;;;;4386396;32;20089;-66
2022/01/21 08:52:47;;;;;;;6.93;1.30;;;21.20;44.90;;;;;;4400228;32;20087;-64
2022/01/21 08:55:16;;;;;;;8.10;1.48;;;21.20;44.70;;;;;;4400162;32;20131;-66
2022/01/21 08:57:43;;;;;;;6.57;1.55;;;21.20;44.40;;;;;;4400399;32;20498;-66
2022/01/21 09:00:13;;;;;;;4.55;1.10;;;21.30;44.20;;;;;;4398715;32;20598;-66
2022/01/21 09:02:39;;;;;;;9.55;1.70;;;21.30;44.10;;;;;;4384506;32;20067;-65
2022/01/21 09:05:06;;;;;;;6.57;1.23;;;21.40;44.10;;;;;;4385086;32;20220;-65
2022/01/21 09:07:32;;;;;;;7.68;1.30;;;21.40;44.00;;;;;;4385073;32;20590;-66
2022/01/21 09:09:58;;;;;;;8.82;1.50;;;21.40;44.10;;;;;;4385268;32;20087;-66
2022/01/21 09:12:24;;;;;;;8.00;1.35;;;21.40;44.00;;;;;;4371379;32;20082;-66
2022/01/21 09:14:50;;;;;;;6.32;1.27;;;21.50;44.20;;;;;;4392109;32;20078;-66
2022/01/21 09:17:17;;;;;;;8.43;1.27;;;21.50;44.30;;;;;;4397783;32;20655;-66
2022/01/21 09:19:43;;;;;;;7.53;1.02;;;21.50;44.30;;;;;;4399204;32;20087;-66
2022/01/21 09:22:09;;;;;;;6.43;1.40;;;21.50;44.30;;;;;;4399864;32;20078;-66
2022/01/21 09:24:35;;;;;;;7.35;1.33;;;21.50;44.30;;;;;;4399751;32;20256;-66
2022/01/21 09:27:03;;;;;;;12.00;1.50;;;21.60;44.20;;;;;;4386000;32;20498;-66
2022/01/21 09:29:30;;;;;;;6.93;1.20;;;21.60;44.10;;;;;;4399939;32;20067;-66
2022/01/21 09:31:56;;;;;;;8.98;1.50;;;21.70;44.00;;;;;;4385660;32;20208;-66
2022/01/21 09:34:24;;;;;;;7.47;1.15;;;21.70;44.00;;;;;;4399945;32;20410;-66
2022/01/21 09:36:50;;;;;;;10.75;1.30;;;21.80;44.00;;;;;;4399262;32;20095;-66
2022/01/21 09:39:16;;;;;;;3.95;1.00;;;21.80;43.90;;;;;;4400038;32;20097;-66
2022/01/21 09:41:43;;;;;;;5.60;1.42;;;21.80;43.80;;;;;;4399782;32;20122;-66
2022/01/21 09:44:14;;;;;;;8.60;1.13;;;21.90;43.80;;;;;;4386058;32;20071;-66
2022/01/21 09:46:44;;;;;;;5.97;1.40;;;21.90;43.60;;;;;;4385344;32;20106;-66
2022/01/21 09:52:12;;;;;;;10.90;1.73;;;21.90;43.60;;;;;;4399345;32;20181;-66
2022/01/21 09:54:47;;;;;;;7.88;1.45;;;21.90;43.60;;;;;;4399067;32;20090;-66
2022/01/21 09:57:18;;;;;;;8.57;1.30;;;22.00;43.70;;;;;;4399666;32;20106;-66
2022/01/21 09:59:45;;;;;;;13.73;1.70;;;22.00;43.70;;;;;;4399354;32;20219;-66
2022/01/21 10:02:11;;;;;;;8.95;1.52;;;22.00;43.70;;;;;;4399394;32;20177;-66
2022/01/21 10:04:41;;;;;;;7.10;1.70;;;22.00;43.60;;;;;;4399402;32;20414;-66
2022/01/21 10:07:14;;;;;;;17.67;2.05;;;22.00;43.70;;;;;;4399413;32;20422;-65
2022/01/21 10:09:41;;;;;;;9.18;1.88;;;22.00;43.80;;;;;;4399117;32;20094;-66
2022/01/21 10:12:08;;;;;;;11.43;1.40;;;21.90;44.00;;;;;;4398969;32;20110;-66
2022/01/21 10:14:33;;;;;;;7.13;1.30;;;21.80;44.30;;;;;;4391160;32;20078;-66
2022/01/21 10:17:00;;;;;;;12.85;1.45;;;21.70;44.60;;;;;;4396989;32;20415;-66
2022/01/21 10:19:32;;;;;;;8.48;1.63;;;21.60;45.00;;;;;;4397282;32;20093;-67
2022/01/21 10:22:08;;;;;;;5.35;1.40;;;21.50;45.40;;;;;;4388860;32;20083;-67
2022/01/21 10:24:35;;;;;;;7.18;1.30;;;21.50;45.90;;;;;;4391263;32;20147;-66
2022/01/21 10:27:02;;;;;;;11.75;1.52;;;21.40;46.00;;;;;;4381885;32;20138;-67
2022/01/21 10:29:40;;;;;;;8.75;1.73;;;21.30;46.20;;;;;;4383362;32;20649;-66
2022/01/21 10:32:07;;;;;;;10.57;1.67;;;21.20;46.50;;;;;;4384930;32;20095;-66
2022/01/21 10:34:42;;;;;;;8.27;1.27;;;21.20;46.80;;;;;;4383062;32;20149;-66
2022/01/21 10:37:36;;;;;;;11.48;1.23;;;21.10;47.10;;;;;;4382635;32;20087;-66
2022/01/21 10:40:10;;;;;;;8.10;1.17;;;21.10;47.20;;;;;;4383159;32;20114;-66
2022/01/21 10:42:37;;;;;;;6.47;1.25;;;21.10;47.60;;;;;;4388146;32;20636;-66
2022/01/21 10:45:08;;;;;;;8.70;1.20;;;21.00;47.60;;;;;;4398000;32;20091;-66
2022/01/21 10:47:37;;;;;;;5.80;1.60;;;21.00;47.70;;;;;;4398566;32;20498;-66
2022/01/21 10:50:11;;;;;;;8.13;1.33;;;20.90;47.70;;;;;;4397758;32;20144;-67
2022/01/21 10:52:49;;;;;;;8.02;1.73;;;20.90;47.80;;;;;;4390226;32;20209;-66
2022/01/21 10:55:46;;;;;;;11.60;1.40;;;20.90;47.90;;;;;;4398283;32;20082;-66
2022/01/21 10:58:14;;;;;;;18.02;1.60;;;20.80;48.00;;;;;;4388856;32;20082;-67
2022/01/21 11:01:02;;;;;;;18.65;1.58;;;20.80;48.20;;;;;;4398753;32;20094;-66
2022/01/21 11:03:30;;;;;;;18.20;2.38;;;20.80;48.40;;;;;;4398220;32;20087;-67
2022/01/21 11:06:15;;;;;;;15.02;2.20;;;20.70;48.80;;;;;;4398052;32;20095;-67
2022/01/21 11:08:41;;;;;;;11.15;1.88;;;20.70;48.80;;;;;;4398709;32;20209;-66
2022/01/21 11:11:07;;;;;;;8.68;1.80;;;20.70;48.90;;;;;;4398259;32;20075;-66
2022/01/21 11:13:36;;;;;;;14.15;1.67;;;20.60;49.20;;;;;;4398710;32;20152;-66
2022/01/21 11:16:24;;;;;;;10.63;1.73;;;20.60;49.50;;;;;;4392096;32;20123;-66
2022/01/21 11:19:14;;;;;;;11.38;1.67;;;20.60;49.80;;;;;;4397721;32;20095;-66
2022/01/21 11:21:46;;;;;;;7.40;2.03;;;20.60;49.90;;;;;;4387971;32;20175;-66
2022/01/21 11:24:14;;;;;;;7.35;1.67;;;20.70;50.30;;;;;;4383574;32;20084;-66
2022/01/21 11:26:40;;;;;;;12.35;1.80;;;20.70;50.50;;;;;;4383272;32;20098;-66
2022/01/21 11:29:06;;;;;;;15.30;1.48;;;20.70;50.60;;;;;;4382809;32;20080;-66
2022/01/21 11:31:32;;;;;;;7.10;1.50;;;20.70;50.80;;;;;;4383306;32;20160;-66
2022/01/21 11:33:58;;;;;;;7.45;1.85;;;20.70;50.90;;;;;;4383197;32;20090;-66
2022/01/21 11:36:26;;;;;;;11.85;2.30;;;20.70;51.10;;;;;;4382071;32;20233;-66
2022/01/21 11:38:55;;;;;;;61.13;3.38;;;20.70;51.30;;;;;;4381742;32;20078;-66
2022/01/21 11:41:25;;;;;;;25.35;2.50;;;20.80;51.40;;;;;;4381587;32;20087;-66
2022/01/21 11:43:55;;;;;;;23.27;2.20;;;20.70;51.40;;;;;;4381835;32;20173;-67
2022/01/21 11:49:01;;;;;;;33.30;2.70;;;20.80;51.20;;;;;;4381881;32;20201;-67
2022/01/21 11:51:32;;;;;;;32.15;2.97;;;20.80;51.10;;;;;;4380665;32;20079;-67
2022/01/21 11:54:05;;;;;;;28.75;2.47;;;20.80;51.00;;;;;;4382238;32;20573;-67
2022/01/21 11:56:32;;;;;;;;;;;20.80;51.00;;;;;;4370744;32;20102;-66
2022/01/21 12:01:52;;;;;;;13.48;2.22;;;20.70;50.90;;;;;;4383259;32;20118;-67
2022/01/21 12:04:29;;;;;;;20.85;1.92;;;20.70;50.80;;;;;;4382181;32;20095;-67
2022/01/21 12:06:56;;;;;;;17.45;2.10;;;20.80;51.00;;;;;;4381163;32;20151;-67
2022/01/21 12:10:00;;;;;;;18.23;2.15;;;20.70;50.90;;;;;;4383382;32;20225;-68
2022/01/21 12:12:45;;;;;;;16.58;1.77;;;20.80;50.80;;;;;;4381440;32;20229;-67
2022/01/21 12:15:21;;;;;;;14.02;2.10;;;20.80;50.70;;;;;;4381369;32;20561;-67
2022/01/21 12:17:53;;;;;;;18.88;1.92;;;20.80;50.70;;;;;;4384360;32;20170;-67
2022/01/21 12:20:33;;;;;;;8.73;1.60;;;20.80;50.80;;;;;;4384315;32;20205;-67
2022/01/21 12:23:14;;;;;;;8.23;1.95;;;20.70;50.60;;;;;;4371466;32;20395;-67
2022/01/21 12:26:17;;;;;;;12.25;1.92;;;20.80;50.70;;;;;;4385129;32;20123;-67
2022/01/21 12:28:46;;;;;;;16.52;2.20;;;20.80;50.70;;;;;;4384629;32;20161;-67
2022/01/21 12:31:16;;;;;;;10.77;1.70;;;20.80;50.70;;;;;;4385329;32;20089;-65
2022/01/21 12:33:51;;;;;;;19.55;1.83;;;20.80;50.60;;;;;;4371579;32;20090;-66
2022/01/21 12:36:19;;;;;;;9.30;1.50;;;20.80;50.70;;;;;;4385067;32;20104;-66
2022/01/21 12:41:16;;;;;;;11.18;1.63;;;20.80;51.00;;;;;;4385475;32;20602;-66
2022/01/21 12:43:46;;;;;;;14.00;1.80;;;20.70;51.00;;;;;;4385691;32;20107;-65
2022/01/21 12:46:22;;;;;;;12.07;1.48;;;20.80;51.00;;;;;;4385032;32;20189;-66
2022/01/21 12:48:50;;;;;;;9.95;1.48;;;20.70;50.90;;;;;;4385473;32;20075;-66
2022/01/21 12:51:33;;;;;;;13.30;2.15;;;20.70;50.80;;;;;;4385359;32;20096;-66
2022/01/21 12:56:48;;;;;;;13.55;2.05;;;20.70;50.80;;;;;;4385626;32;20079;-66
2022/01/21 12:59:20;;;;;;;13.02;1.77;;;20.70;50.90;;;;;;4385371;32;20079;-66
2022/01/21 13:01:47;;;;;;;11.27;1.80;;;20.70;50.90;;;;;;4386361;32;20076;-66
2022/01/21 13:04:18;;;;;;;14.48;1.70;;;20.70;50.80;;;;;;4384231;32;20122;-66
2022/01/21 13:07:03;;;;;;;7.35;1.30;;;20.80;50.80;;;;;;4384657;32;20558;-66
2022/01/21 13:10:06;;;;;;;8.60;1.67;;;20.80;50.70;;;;;;4384715;32;20097;-65
2022/01/21 13:15:47;;;;;;;7.90;2.10;;;20.80;50.50;;;;;;4385282;32;20503;-66
2022/01/21 13:18:23;;;;;;;11.20;1.77;;;20.80;50.40;;;;;;4384553;32;20107;-67
2022/01/21 13:20:53;;;;;;;10.98;1.58;;;20.80;50.40;;;;;;4384840;32;20094;-66
2022/01/21 13:23:50;;;;;;;9.65;1.70;;;20.80;50.40;;;;;;4384813;32;20186;-66
2022/01/21 13:26:28;;;;;;;6.18;1.40;;;20.80;50.40;;;;;;4385009;32;20071;-66
2022/01/21 13:29:05;;;;;;;6.07;1.40;;;20.80;50.40;;;;;;4384935;32;20080;-66
2022/01/21 13:31:35;;;;;;;11.05;1.63;;;20.80;50.40;;;;;;4371120;32;20166;-66
2022/01/21 13:34:22;;;;;;;9.77;1.42;;;20.80;50.40;;;;;;4384867;32;20456;-66
2022/01/21 13:36:57;;;;;;;6.35;1.70;;;20.80;50.40;;;;;;4384914;32;20079;-66
2022/01/21 13:39:26;;;;;;;12.15;1.20;;;20.80;50.50;;;;;;4384652;32;20209;-66
2022/01/21 13:41:51;;;;;;;8.68;1.38;;;20.80;50.50;;;;;;4384814;32;20088;-66
2022/01/21 13:44:36;;;;;;;16.92;2.30;;;20.80;50.50;;;;;;4382733;32;20079;-66
2022/01/21 13:47:06;;;;;;;8.18;1.83;;;20.80;50.50;;;;;;4382973;32;20141;-66
2022/01/21 13:49:32;;;;;;;9.27;1.77;;;20.80;50.60;;;;;;4384158;32;20075;-66
2022/01/21 13:52:05;;;;;;;14.05;1.52;;;20.80;50.70;;;;;;4384436;32;20151;-66
2022/01/21 13:54:33;;;;;;;5.87;1.57;;;20.80;50.80;;;;;;4384631;32;20221;-66
2022/01/21 13:57:01;;;;;;;9.77;1.80;;;20.80;50.80;;;;;;4383334;32;20415;-66